Time;durP1;ratioP1;P1;durP2;ratioP2;P2;SDS_P1;SDS_P2;PMS_P1;PMS_P2;Temp;Humidity;BMP_temperature;BMP_pressure;BME280_temperature;BME280_humidity;BME280_pressure;Samples;Min_cycle;Max_cycle;Signal;HPM_P1;HPM_P2
2024/02/01 00:00:41;;;;;;;18.50;16.57;;;;;;;;;;5037461;28;20432;-78
2024/02/01 00:03:07;;;;;;;17.55;15.65;;;;;;;;;;5036857;28;20411;-78
2024/02/01 00:05:33;;;;;;;16.92;15.23;;;;;;;;;;5037160;28;20386;-78
2024/02/01 00:07:59;;;;;;;19.90;16.15;;;;;;;;;;5036817;28;20552;-78
2024/02/01 00:10:25;;;;;;;18.35;15.98;;;;;;;;;;5037273;28;20420;-78
2024/02/01 00:12:51;;;;;;;18.70;15.83;;;;;;;;;;5037081;28;20981;-78
2024/02/01 00:15:17;;;;;;;20.65;17.15;;;;;;;;;;5036737;28;20387;-78
2024/02/01 00:17:43;;;;;;;17.83;15.95;;;;;;;;;;5036511;28;20379;-78
2024/02/01 00:20:09;;;;;;;18.47;16.23;;;;;;;;;;5036635;28;20379;-78
2024/02/01 00:22:35;;;;;;;18.13;16.02;;;;;;;;;;5036496;28;20437;-78
2024/02/01 00:25:02;;;;;;;18.33;16.05;;;;;;;;;;5036744;28;20390;-78
2024/02/01 00:27:28;;;;;;;18.23;15.80;;;;;;;;;;5036307;28;20403;-78
2024/02/01 00:29:54;;;;;;;17.52;15.73;;;;;;;;;;5036954;28;20387;-78
2024/02/01 00:32:20;;;;;;;17.65;15.85;;;;;;;;;;5036274;28;20462;-78
2024/02/01 00:34:46;;;;;;;18.45;16.27;;;;;;;;;;5036011;28;20908;-78
2024/02/01 00:37:15;;;;;;;17.95;16.02;;;;;;;;;;5036078;28;21616;-78
2024/02/01 00:39:41;;;;;;;17.70;15.85;;;;;;;;;;5036636;28;20796;-78
2024/02/01 00:42:07;;;;;;;18.45;16.48;;;;;;;;;;5036090;28;20429;-78
2024/02/01 00:44:33;;;;;;;18.85;16.15;;;;;;;;;;5036807;28;20403;-78
2024/02/01 00:46:59;;;;;;;18.95;16.02;;;;;;;;;;5036640;28;20403;-78
2024/02/01 00:49:24;;;;;;;17.83;15.80;;;;;;;;;;5036535;28;20523;-78
2024/02/01 00:51:51;;;;;;;18.50;16.60;;;;;;;;;;5036925;28;20390;-78
2024/02/01 00:54:17;;;;;;;20.73;17.13;;;;;;;;;;5037009;28;20500;-78
2024/02/01 00:56:43;;;;;;;21.05;17.25;;;;;;;;;;5037170;28;20414;-78
2024/02/01 00:59:09;;;;;;;20.40;17.30;;;;;;;;;;5037050;28;20390;-78
2024/02/01 01:01:34;;;;;;;18.92;16.90;;;;;;;;;;5037619;28;20379;-78
2024/02/01 01:04:01;;;;;;;20.88;17.33;;;;;;;;;;5036349;28;20411;-78
2024/02/01 01:06:27;;;;;;;20.50;17.90;;;;;;;;;;5037006;28;20768;-78
2024/02/01 01:08:54;;;;;;;20.77;17.85;;;;;;;;;;5036773;28;20445;-78
2024/02/01 01:11:20;;;;;;;21.98;17.77;;;;;;;;;;5036692;28;20896;-78
2024/02/01 01:13:46;;;;;;;19.02;17.13;;;;;;;;;;5037356;28;20466;-78
2024/02/01 01:16:12;;;;;;;19.85;17.75;;;;;;;;;;5036972;28;20477;-78
2024/02/01 01:18:37;;;;;;;21.83;18.50;;;;;;;;;;5036770;28;20849;-78
2024/02/01 01:21:04;;;;;;;21.52;18.15;;;;;;;;;;5036649;28;20379;-78
2024/02/01 01:23:30;;;;;;;21.83;18.80;;;;;;;;;;5037242;28;20375;-78
2024/02/01 01:25:55;;;;;;;20.00;17.60;;;;;;;;;;5037092;28;20505;-78
2024/02/01 01:28:21;;;;;;;24.95;19.00;;;;;;;;;;5037640;28;20378;-78
2024/02/01 01:30:49;;;;;;;27.73;20.83;;;;;;;;;;5038020;28;20398;-78
2024/02/01 01:33:15;;;;;;;32.60;23.08;;;;;;;;;;5038133;28;20375;-79
2024/02/01 01:35:41;;;;;;;35.78;25.27;;;;;;;;;;5037684;28;20470;-78
2024/02/01 01:38:07;;;;;;;32.78;24.77;;;;;;;;;;5036814;28;20429;-78
2024/02/01 01:40:33;;;;;;;32.95;24.95;;;;;;;;;;5037621;28;20383;-78
2024/02/01 01:42:59;;;;;;;38.30;25.60;;;;;;;;;;5037136;28;20389;-79
2024/02/01 01:45:25;;;;;;;33.65;25.02;;;;;;;;;;5036907;28;20390;-79
2024/02/01 01:47:51;;;;;;;31.60;23.02;;;;;;;;;;5036805;28;20943;-78
2024/02/01 01:50:17;;;;;;;29.23;22.92;;;;;;;;;;5036601;28;20379;-78
2024/02/01 01:52:44;;;;;;;30.23;21.57;;;;;;;;;;5036340;28;20925;-78
2024/02/01 01:55:11;;;;;;;26.25;21.48;;;;;;;;;;5036308;28;20429;-79
2024/02/01 01:57:38;;;;;;;29.23;22.52;;;;;;;;;;5036545;28;20379;-78
2024/02/01 02:00:04;;;;;;;24.88;20.63;;;;;;;;;;5036076;28;20489;-79
2024/02/01 02:02:32;;;;;;;25.73;21.35;;;;;;;;;;5037612;28;20383;-77
2024/02/01 02:04:59;;;;;;;24.93;21.30;;;;;;;;;;5036960;28;20908;-78
2024/02/01 02:07:25;;;;;;;25.27;20.53;;;;;;;;;;5036409;28;20508;-78
2024/02/01 02:09:51;;;;;;;25.15;20.77;;;;;;;;;;5037179;28;20386;-78
2024/02/01 02:12:17;;;;;;;26.13;20.90;;;;;;;;;;5037095;28;20454;-77
2024/02/01 02:14:53;;;;;;;27.52;21.25;;;;;;;;;;5036592;28;20782;-78
2024/02/01 02:17:19;;;;;;;27.08;20.58;;;;;;;;;;5036372;28;20383;-78
2024/02/01 02:19:46;;;;;;;26.80;20.65;;;;;;;;;;5037113;28;20441;-78
2024/02/01 02:22:12;;;;;;;23.97;20.33;;;;;;;;;;5037139;28;20449;-78
2024/02/01 02:24:38;;;;;;;25.23;21.00;;;;;;;;;;5036714;28;20383;-78
2024/02/01 02:27:04;;;;;;;25.90;20.70;;;;;;;;;;5036245;28;20502;-78
2024/02/01 02:29:30;;;;;;;23.52;20.13;;;;;;;;;;5036399;28;20414;-78
2024/02/01 02:31:56;;;;;;;27.13;19.92;;;;;;;;;;5036675;28;20376;-79
2024/02/01 02:34:22;;;;;;;25.05;20.45;;;;;;;;;;5036500;28;20468;-79
2024/02/01 02:36:48;;;;;;;23.97;20.40;;;;;;;;;;5036968;28;20468;-78
2024/02/01 02:39:14;;;;;;;26.00;20.42;;;;;;;;;;5036461;28;20387;-79
2024/02/01 02:41:40;;;;;;;25.08;19.88;;;;;;;;;;5037145;28;20765;-78
2024/02/01 02:44:10;;;;;;;25.50;20.65;;;;;;;;;;5036952;28;20394;-78
2024/02/01 02:46:36;;;;;;;24.15;20.15;;;;;;;;;;5036858;28;20399;-79
2024/02/01 02:49:02;;;;;;;26.27;20.42;;;;;;;;;;5039539;28;20375;-79
2024/02/01 02:51:28;;;;;;;29.85;20.83;;;;;;;;;;5040347;28;20465;-78
2024/02/01 02:53:54;;;;;;;25.60;20.50;;;;;;;;;;5041052;28;20514;-79
2024/02/01 02:56:21;;;;;;;26.38;20.33;;;;;;;;;;5040352;28;20884;-79
2024/02/01 02:58:47;;;;;;;23.40;19.40;;;;;;;;;;5040248;28;20391;-78
2024/02/01 03:01:13;;;;;;;20.88;18.17;;;;;;;;;;5040729;28;20395;-78
2024/02/01 03:03:42;;;;;;;20.95;17.90;;;;;;;;;;5040011;28;20407;-79
2024/02/01 03:06:08;;;;;;;22.48;18.63;;;;;;;;;;5039636;28;20457;-78
2024/02/01 03:08:35;;;;;;;23.83;19.17;;;;;;;;;;5040367;28;20736;-78
2024/02/01 03:11:01;;;;;;;20.38;18.13;;;;;;;;;;5039566;28;20429;-78
2024/02/01 03:13:27;;;;;;;21.17;18.23;;;;;;;;;;5040347;28;20383;-78
2024/02/01 03:15:53;;;;;;;22.17;18.50;;;;;;;;;;5040652;28;20387;-78
2024/02/01 03:18:19;;;;;;;22.58;18.90;;;;;;;;;;5039754;28;20410;-78
2024/02/01 03:20:45;;;;;;;22.55;18.55;;;;;;;;;;5039238;28;20441;-78
2024/02/01 03:23:11;;;;;;;24.33;18.63;;;;;;;;;;5039586;28;20849;-78
2024/02/01 03:25:39;;;;;;;21.77;17.85;;;;;;;;;;5039227;28;20387;-78
2024/02/01 03:28:06;;;;;;;23.05;18.80;;;;;;;;;;5039699;28;20413;-78
2024/02/01 03:30:33;;;;;;;25.77;19.20;;;;;;;;;;5039217;28;20376;-78
2024/02/01 03:33:05;;;;;;;26.10;20.53;;;;;;;;;;5039542;28;20379;-78
2024/02/01 03:35:31;;;;;;;24.57;19.70;;;;;;;;;;5039363;28;20368;-78
2024/02/01 03:38:01;;;;;;;26.60;19.38;;;;;;;;;;5039118;28;20378;-78
2024/02/01 03:40:27;;;;;;;22.92;18.92;;;;;;;;;;5039603;28;20454;-78
2024/02/01 03:42:53;;;;;;;22.35;19.13;;;;;;;;;;5039413;28;20383;-78
2024/02/01 03:45:19;;;;;;;21.75;18.13;;;;;;;;;;5039815;28;20379;-79
2024/02/01 03:47:46;;;;;;;22.25;18.67;;;;;;;;;;5039271;28;20947;-79
2024/02/01 03:50:13;;;;;;;21.65;18.40;;;;;;;;;;5038828;28;20876;-79
2024/02/01 03:52:43;;;;;;;22.17;19.47;;;;;;;;;;5039618;28;20449;-79
2024/02/01 03:55:19;;;;;;;21.48;19.00;;;;;;;;;;5039428;28;20791;-78
2024/02/01 03:57:45;;;;;;;22.63;18.65;;;;;;;;;;5038949;28;20432;-78
2024/02/01 04:00:24;;;;;;;22.20;18.30;;;;;;;;;;5037854;28;20865;-78
2024/02/01 04:02:54;;;;;;;28.10;19.25;;;;;;;;;;5038313;28;20561;-79
2024/02/01 04:05:20;;;;;;;21.03;18.43;;;;;;;;;;5039004;28;20388;-78
2024/02/01 04:07:46;;;;;;;21.88;18.67;;;;;;;;;;5038336;28;20880;-78
2024/02/01 04:10:12;;;;;;;25.02;19.10;;;;;;;;;;5038902;28;20367;-79
2024/02/01 04:12:38;;;;;;;28.42;18.77;;;;;;;;;;5038705;28;20377;-79
2024/02/01 04:15:05;;;;;;;24.58;18.58;;;;;;;;;;5038627;28;20375;-78
2024/02/01 04:17:31;;;;;;;20.40;17.45;;;;;;;;;;5038738;28;20483;-78
2024/02/01 04:19:57;;;;;;;20.42;18.15;;;;;;;;;;5038409;28;20407;-79
2024/02/01 04:22:25;;;;;;;22.07;18.30;;;;;;;;;;5038196;28;20814;-78
2024/02/01 04:24:51;;;;;;;26.17;18.80;;;;;;;;;;5038292;28;20734;-78
2024/02/01 04:27:18;;;;;;;22.20;18.60;;;;;;;;;;5038056;28;20934;-78
2024/02/01 04:29:44;;;;;;;23.90;18.92;;;;;;;;;;5038784;28;20386;-79
2024/02/01 04:32:10;;;;;;;22.80;18.88;;;;;;;;;;5037930;28;20386;-78
2024/02/01 04:34:38;;;;;;;22.27;18.27;;;;;;;;;;5038461;28;20383;-78
2024/02/01 04:37:12;;;;;;;22.05;17.73;;;;;;;;;;5038538;28;20410;-78
2024/02/01 04:39:38;;;;;;;25.55;19.02;;;;;;;;;;5038610;28;20725;-78
2024/02/01 04:42:16;;;;;;;20.00;17.77;;;;;;;;;;5038332;28;20390;-78
2024/02/01 04:44:48;;;;;;;20.10;17.73;;;;;;;;;;5037813;28;20410;-78
2024/02/01 04:47:14;;;;;;;21.10;17.80;;;;;;;;;;5034458;28;21009;-79
2024/02/01 04:49:40;;;;;;;21.30;18.17;;;;;;;;;;5018714;28;20391;-78
2024/02/01 04:52:06;;;;;;;22.75;18.67;;;;;;;;;;5030239;28;20920;-78
2024/02/01 04:54:34;;;;;;;26.03;19.53;;;;;;;;;;5018278;28;20437;-79
2024/02/01 04:57:03;;;;;;;26.00;19.63;;;;;;;;;;5017927;28;20393;-78
2024/02/01 04:59:29;;;;;;;23.25;19.08;;;;;;;;;;5019231;28;20377;-79
2024/02/01 05:01:55;;;;;;;24.38;18.50;;;;;;;;;;5018076;28;20562;-79
2024/02/01 05:04:21;;;;;;;24.27;18.83;;;;;;;;;;5018112;28;20463;-79
2024/02/01 05:06:47;;;;;;;21.60;17.52;;;;;;;;;;5017725;28;20973;-78
2024/02/01 05:09:25;;;;;;;23.88;19.77;;;;;;;;;;5017725;28;20377;-78
2024/02/01 05:11:52;;;;;;;22.48;18.20;;;;;;;;;;5017339;28;20932;-79
2024/02/01 05:14:19;;;;;;;25.27;18.92;;;;;;;;;;5017419;28;20439;-78
2024/02/01 05:16:45;;;;;;;25.60;18.55;;;;;;;;;;5017695;28;20417;-78
2024/02/01 05:19:11;;;;;;;24.93;19.17;;;;;;;;;;5017009;28;20497;-78
2024/02/01 05:21:37;;;;;;;24.52;19.23;;;;;;;;;;5017400;28;20381;-78
2024/02/01 05:24:03;;;;;;;28.52;19.23;;;;;;;;;;5017443;28;20384;-79
2024/02/01 05:26:29;;;;;;;24.57;18.93;;;;;;;;;;5017452;28;20405;-78
2024/02/01 05:28:55;;;;;;;24.08;19.30;;;;;;;;;;5018133;28;20380;-78
2024/02/01 05:31:21;;;;;;;24.00;19.02;;;;;;;;;;5018424;28;20420;-78
2024/02/01 05:33:48;;;;;;;23.65;18.70;;;;;;;;;;5017596;28;20443;-78
2024/02/01 05:36:14;;;;;;;23.63;18.65;;;;;;;;;;5017141;28;20434;-79
2024/02/01 05:38:40;;;;;;;24.08;18.90;;;;;;;;;;5017219;28;20488;-79
2024/02/01 05:41:11;;;;;;;23.67;18.80;;;;;;;;;;5017833;28;20380;-78
2024/02/01 05:43:42;;;;;;;23.20;19.47;;;;;;;;;;5017009;28;20408;-79
2024/02/01 05:46:14;;;;;;;22.52;18.05;;;;;;;;;;5017196;28;20405;-79
2024/02/01 05:48:40;;;;;;;23.23;18.67;;;;;;;;;;5017087;28;20729;-78
2024/02/01 05:51:06;;;;;;;21.67;18.27;;;;;;;;;;5014848;28;20381;-79
2024/02/01 05:53:32;;;;;;;20.73;17.67;;;;;;;;;;5015547;28;20412;-79
2024/02/01 05:55:59;;;;;;;18.67;16.67;;;;;;;;;;5023374;28;20512;-79
2024/02/01 05:58:27;;;;;;;19.00;16.13;;;;;;;;;;5034948;28;20387;-79
2024/02/01 06:00:53;;;;;;;19.42;16.27;;;;;;;;;;5034333;28;20379;-79
2024/02/01 06:03:19;;;;;;;20.92;16.70;;;;;;;;;;5034497;28;20482;-79
2024/02/01 06:05:49;;;;;;;20.23;16.30;;;;;;;;;;5034819;28;20741;-78
2024/02/01 06:08:15;;;;;;;22.20;17.60;;;;;;;;;;5034372;28;21282;-79
2024/02/01 06:10:41;;;;;;;21.00;17.33;;;;;;;;;;5036862;28;20386;-78
2024/02/01 06:13:07;;;;;;;19.58;17.30;;;;;;;;;;5035467;28;20414;-78
2024/02/01 06:15:36;;;;;;;21.27;17.50;;;;;;;;;;5035081;28;20386;-79
2024/02/01 06:18:03;;;;;;;22.53;17.80;;;;;;;;;;5035142;28;20478;-78
2024/02/01 06:20:29;;;;;;;21.93;17.27;;;;;;;;;;5035541;28;20392;-78
2024/02/01 06:22:55;;;;;;;20.92;17.90;;;;;;;;;;5036549;28;20398;-78
2024/02/01 06:25:21;;;;;;;19.35;17.25;;;;;;;;;;5039695;28;20391;-79
2024/02/01 06:27:48;;;;;;;19.58;17.48;;;;;;;;;;5039085;28;20414;-78
2024/02/01 06:30:15;;;;;;;24.20;19.10;;;;;;;;;;5038844;28;20375;-78
2024/02/01 06:32:42;;;;;;;21.48;18.30;;;;;;;;;;5039025;28;20381;-78
2024/02/01 06:35:16;;;;;;;20.02;17.27;;;;;;;;;;5039258;28;20398;-78
2024/02/01 06:37:42;;;;;;;20.60;17.23;;;;;;;;;;5039275;28;20841;-78
2024/02/01 06:43:11;;;;;;;21.17;17.17;;;;;;;;;;5038305;28;20417;-78
2024/02/01 06:46:01;;;;;;;19.15;16.60;;;;;;;;;;5038439;28;20417;-78
2024/02/01 06:48:40;;;;;;;23.00;17.25;;;;;;;;;;5038254;28;20470;-78
2024/02/01 06:51:20;;;;;;;19.77;16.67;;;;;;;;;;5038357;28;20383;-78
2024/02/01 06:53:56;;;;;;;19.65;16.70;;;;;;;;;;5037866;28;20372;-78
2024/02/01 06:56:44;;;;;;;18.60;16.50;;;;;;;;;;5038094;28;20386;-78
2024/02/01 06:59:29;;;;;;;18.95;16.90;;;;;;;;;;5038325;28;20456;-77
2024/02/01 07:02:24;;;;;;;18.65;16.50;;;;;;;;;;5038509;28;20375;-78
2024/02/01 07:04:51;;;;;;;22.33;17.90;;;;;;;;;;5038583;28;20501;-78
2024/02/01 07:07:27;;;;;;;20.63;16.45;;;;;;;;;;5038079;28;20410;-78
2024/02/01 07:10:08;;;;;;;19.98;16.25;;;;;;;;;;5038051;28;20402;-78
2024/02/01 07:12:42;;;;;;;18.95;15.70;;;;;;;;;;5037652;28;20845;-78
2024/02/01 07:17:59;;;;;;;18.20;14.93;;;;;;;;;;5037321;28;20375;-78
2024/02/01 07:25:49;;;;;;;19.55;15.63;;;;;;;;;;5037170;28;20391;-78
2024/02/01 07:58:30;;;;;;;17.45;14.77;;;;;;;;;;5037733;28;20381;-78
2024/02/01 08:00:57;;;;;;;17.38;15.00;;;;;;;;;;5037665;28;20375;-78
2024/02/01 08:08:37;;;;;;;16.63;15.00;;;;;;;;;;5037732;28;20374;-78
2024/02/01 08:11:04;;;;;;;18.42;14.50;;;;;;;;;;5023837;28;20921;-78
2024/02/01 08:13:30;;;;;;;17.40;14.80;;;;;;;;;;5036935;28;20444;-79
2024/02/01 08:15:56;;;;;;;17.73;14.93;;;;;;;;;;5037324;28;20396;-78
2024/02/01 08:18:35;;;;;;;16.77;13.98;;;;;;;;;;5037739;28;20383;-78
2024/02/01 08:21:04;;;;;;;17.52;13.98;;;;;;;;;;5038292;28;20470;-79
2024/02/01 08:23:30;;;;;;;15.15;13.40;;;;;;;;;;5037611;28;20379;-78
2024/02/01 08:26:02;;;;;;;16.52;13.68;;;;;;;;;;5037532;28;20371;-79
2024/02/01 08:28:32;;;;;;;15.25;13.63;;;;;;;;;;5037900;28;20718;-78
2024/02/01 08:31:02;;;;;;;15.33;13.27;;;;;;;;;;5037679;28;20405;-78
2024/02/01 08:33:28;;;;;;;14.77;13.10;;;;;;;;;;5037376;28;20384;-79
2024/02/01 08:35:54;;;;;;;15.77;13.65;;;;;;;;;;5037718;28;20439;-78
2024/02/01 08:38:21;;;;;;;15.48;12.82;;;;;;;;;;5036870;28;20403;-78
2024/02/01 08:40:47;;;;;;;16.65;13.63;;;;;;;;;;5037408;28;20749;-78
2024/02/01 08:43:13;;;;;;;18.13;13.90;;;;;;;;;;5037350;28;20442;-79
2024/02/01 08:45:44;;;;;;;17.58;14.52;;;;;;;;;;5036736;28;20380;-79
2024/02/01 08:48:10;;;;;;;16.42;14.30;;;;;;;;;;5037386;28;20403;-78
2024/02/01 08:50:43;;;;;;;17.77;15.37;;;;;;;;;;5037758;28;20375;-78
2024/02/01 08:53:12;;;;;;;17.73;15.07;;;;;;;;;;5037142;28;20382;-78
2024/02/01 08:55:38;;;;;;;18.20;15.30;;;;;;;;;;5036120;28;20387;-78
2024/02/01 08:58:11;;;;;;;17.98;15.82;;;;;;;;;;5035718;28;20852;-79
2024/02/01 09:00:38;;;;;;;15.85;14.15;;;;;;;;;;5036225;28;20379;-78
2024/02/01 09:03:06;;;;;;;19.15;14.30;;;;;;;;;;5035359;28;20411;-79
2024/02/01 09:05:35;;;;;;;16.85;14.65;;;;;;;;;;5036105;28;20445;-79
2024/02/01 09:08:02;;;;;;;17.00;14.97;;;;;;;;;;5035634;28;20403;-78
2024/02/01 09:10:29;;;;;;;16.45;14.18;;;;;;;;;;5036366;28;20375;-79
2024/02/01 09:12:55;;;;;;;16.70;13.90;;;;;;;;;;5037418;28;20802;-78
2024/02/01 09:15:21;;;;;;;17.00;14.85;;;;;;;;;;5036682;28;20841;-79
2024/02/01 09:17:47;;;;;;;18.90;15.60;;;;;;;;;;5037449;28;20402;-79
2024/02/01 09:20:23;;;;;;;20.63;16.05;;;;;;;;;;5037279;28;20383;-79
2024/02/01 09:22:50;;;;;;;19.27;15.60;;;;;;;;;;5038081;28;20371;-78
2024/02/01 09:25:20;;;;;;;21.17;16.33;;;;;;;;;;5037134;28;20376;-78
2024/02/01 09:27:47;;;;;;;19.20;15.68;;;;;;;;;;5037084;28;20461;-79
2024/02/01 09:30:13;;;;;;;18.40;15.95;;;;;;;;;;5037266;28;20384;-79
2024/02/01 09:32:39;;;;;;;19.97;16.40;;;;;;;;;;5036917;28;20492;-79
2024/02/01 09:35:05;;;;;;;22.63;16.02;;;;;;;;;;5037255;28;20391;-78
2024/02/01 09:37:32;;;;;;;22.98;16.65;;;;;;;;;;5037145;28;20432;-78
2024/02/01 09:40:00;;;;;;;20.13;16.80;;;;;;;;;;5036846;28;20383;-79
2024/02/01 09:42:26;;;;;;;20.80;16.95;;;;;;;;;;5037402;28;20900;-78
2024/02/01 09:44:56;;;;;;;23.02;18.05;;;;;;;;;;5036419;28;20456;-79
2024/02/01 09:47:22;;;;;;;21.63;16.90;;;;;;;;;;5036534;28;20884;-79
2024/02/01 09:49:48;;;;;;;26.35;17.85;;;;;;;;;;5036493;28;20398;-78
2024/02/01 09:52:14;;;;;;;20.33;16.63;;;;;;;;;;5036038;28;20853;-78
2024/02/01 09:54:40;;;;;;;21.30;17.50;;;;;;;;;;5035771;28;20395;-78
2024/02/01 09:57:14;;;;;;;21.88;16.85;;;;;;;;;;5034558;28;20438;-79
2024/02/01 09:59:40;;;;;;;18.33;15.55;;;;;;;;;;5035874;28;20490;-79
2024/02/01 10:02:10;;;;;;;19.65;16.52;;;;;;;;;;5034968;28;20383;-79
2024/02/01 10:04:37;;;;;;;22.50;17.52;;;;;;;;;;5035094;28;20411;-79
2024/02/01 10:07:03;;;;;;;22.83;17.97;;;;;;;;;;5034109;28;20564;-79
2024/02/01 10:09:29;;;;;;;24.30;18.88;;;;;;;;;;5035315;28;20398;-78
2024/02/01 10:11:55;;;;;;;24.98;18.73;;;;;;;;;;5035070;28;20387;-79
2024/02/01 10:14:34;;;;;;;28.33;20.90;;;;;;;;;;5035456;28;20517;-78
2024/02/01 10:17:01;;;;;;;29.08;20.83;;;;;;;;;;5035147;28;20391;-78
2024/02/01 10:19:27;;;;;;;29.75;21.35;;;;;;;;;;5035045;28;20383;-79
2024/02/01 10:21:59;;;;;;;28.75;21.25;;;;;;;;;;5034511;28;20714;-79
2024/02/01 10:24:26;;;;;;;31.15;21.88;;;;;;;;;;5035341;28;20390;-78
2024/02/01 10:27:01;;;;;;;25.83;20.73;;;;;;;;;;5035211;28;20406;-78
2024/02/01 10:29:30;;;;;;;26.52;21.17;;;;;;;;;;5034835;28;20501;-78
2024/02/01 10:32:01;;;;;;;30.20;21.77;;;;;;;;;;5034589;28;20391;-78
2024/02/01 10:34:28;;;;;;;30.90;21.27;;;;;;;;;;5035414;28;20387;-79
2024/02/01 10:37:00;;;;;;;28.17;20.17;;;;;;;;;;5035189;28;20410;-78
2024/02/01 10:39:29;;;;;;;25.02;19.90;;;;;;;;;;5036080;28;20482;-79
2024/02/01 10:41:59;;;;;;;27.15;20.85;;;;;;;;;;5036196;28;20384;-78
2024/02/01 10:44:32;;;;;;;27.45;20.63;;;;;;;;;;5035250;28;20473;-78
2024/02/01 10:47:00;;;;;;;26.38;19.65;;;;;;;;;;5034473;28;20407;-79
2024/02/01 10:49:28;;;;;;;27.88;19.90;;;;;;;;;;5035625;28;20379;-79
2024/02/01 10:51:55;;;;;;;24.30;19.00;;;;;;;;;;5034413;28;20386;-79
2024/02/01 10:54:21;;;;;;;26.00;19.67;;;;;;;;;;5035320;28;20383;-78
2024/02/01 10:56:47;;;;;;;24.58;19.42;;;;;;;;;;5034822;28;20402;-78
2024/02/01 10:59:17;;;;;;;22.48;18.60;;;;;;;;;;5035110;28;20375;-79
2024/02/01 11:01:43;;;;;;;24.00;18.58;;;;;;;;;;5035130;28;20380;-79
2024/02/01 11:04:10;;;;;;;24.02;18.80;;;;;;;;;;5034057;28;20456;-79
2024/02/01 11:06:37;;;;;;;25.23;18.67;;;;;;;;;;5034929;28;20408;-78
2024/02/01 11:09:26;;;;;;;23.10;17.70;;;;;;;;;;5035766;28;20387;-79
2024/02/01 11:11:52;;;;;;;21.08;17.55;;;;;;;;;;5037970;28;20410;-78
2024/02/01 11:14:24;;;;;;;23.13;16.90;;;;;;;;;;5038793;28;20388;-79
2024/02/01 11:16:59;;;;;;;20.73;16.83;;;;;;;;;;5038642;28;20984;-79
2024/02/01 11:19:34;;;;;;;19.95;15.95;;;;;;;;;;5038391;28;20437;-78
2024/02/01 11:22:01;;;;;;;18.85;15.77;;;;;;;;;;5038355;28;20448;-78
2024/02/01 11:24:27;;;;;;;17.00;14.60;;;;;;;;;;5038568;28;20860;-78
2024/02/01 11:26:54;;;;;;;20.67;15.75;;;;;;;;;;5038626;28;20419;-78
2024/02/01 11:29:23;;;;;;;17.58;15.13;;;;;;;;;;5038478;28;20442;-79
2024/02/01 11:31:54;;;;;;;17.20;14.82;;;;;;;;;;5038269;28;20375;-79
2024/02/01 11:34:22;;;;;;;16.52;14.52;;;;;;;;;;5038842;28;20389;-78
2024/02/01 11:36:48;;;;;;;19.90;15.00;;;;;;;;;;5038714;28;20473;-79
2024/02/01 11:39:15;;;;;;;17.00;14.93;;;;;;;;;;5038075;28;20390;-79
2024/02/01 11:41:46;;;;;;;17.55;14.68;;;;;;;;;;5038061;28;20471;-78
2024/02/01 11:44:15;;;;;;;19.15;15.45;;;;;;;;;;5037669;28;20383;-79
2024/02/01 11:46:50;;;;;;;20.77;15.32;;;;;;;;;;5037619;28;20438;-78
2024/02/01 11:49:17;;;;;;;17.15;15.35;;;;;;;;;;5038462;28;20371;-79
2024/02/01 11:51:51;;;;;;;18.52;15.50;;;;;;;;;;5038061;28;20905;-79
2024/02/01 11:54:17;;;;;;;18.33;15.82;;;;;;;;;;5037659;28;20383;-78
2024/02/01 11:56:44;;;;;;;20.73;16.08;;;;;;;;;;5037765;28;20441;-79
2024/02/01 11:59:10;;;;;;;22.80;16.67;;;;;;;;;;5037403;28;20390;-78
2024/02/01 12:01:37;;;;;;;18.70;15.60;;;;;;;;;;5037159;28;20478;-78
2024/02/01 12:04:03;;;;;;;19.55;15.55;;;;;;;;;;5036990;28;20415;-78
2024/02/01 12:06:29;;;;;;;18.30;16.38;;;;;;;;;;5017729;28;20416;-79
2024/02/01 12:08:59;;;;;;;18.55;16.55;;;;;;;;;;5024932;28;20460;-78
2024/02/01 12:11:29;;;;;;;18.13;15.47;;;;;;;;;;5037273;28;20492;-79
2024/02/01 12:13:59;;;;;;;20.80;16.88;;;;;;;;;;5037037;28;20394;-79
2024/02/01 12:16:26;;;;;;;20.60;16.85;;;;;;;;;;5036888;28;20416;-79
2024/02/01 12:18:53;;;;;;;18.75;16.13;;;;;;;;;;5035830;28;20749;-78
2024/02/01 12:21:26;;;;;;;19.03;15.80;;;;;;;;;;5035451;28;20389;-77
2024/02/01 12:23:59;;;;;;;16.85;15.05;;;;;;;;;;5036162;28;20466;-78
2024/02/01 12:26:29;;;;;;;21.10;15.93;;;;;;;;;;5036120;28;20834;-78
2024/02/01 12:28:55;;;;;;;17.08;15.27;;;;;;;;;;5035706;28;20474;-77
2024/02/01 12:31:22;;;;;;;18.90;15.32;;;;;;;;;;5035026;28;20478;-78
2024/02/01 12:33:49;;;;;;;18.40;15.60;;;;;;;;;;5035812;28;20393;-78
2024/02/01 12:36:16;;;;;;;16.30;14.60;;;;;;;;;;5034403;28;20462;-77
2024/02/01 12:38:44;;;;;;;16.33;14.60;;;;;;;;;;5033967;28;20383;-77
2024/02/01 12:41:11;;;;;;;16.23;13.90;;;;;;;;;;5034024;28;20383;-78
2024/02/01 12:43:38;;;;;;;15.73;13.90;;;;;;;;;;5033739;28;20383;-78
2024/02/01 12:46:04;;;;;;;17.63;14.35;;;;;;;;;;5034282;28;20780;-78
2024/02/01 12:48:30;;;;;;;18.37;14.47;;;;;;;;;;5034783;28;20395;-78
2024/02/01 12:50:58;;;;;;;15.98;14.38;;;;;;;;;;5034584;28;20383;-77
2024/02/01 12:53:24;;;;;;;15.35;13.73;;;;;;;;;;5034322;28;20390;-78
2024/02/01 12:55:50;;;;;;;16.45;14.35;;;;;;;;;;5034232;28;20481;-78
2024/02/01 12:58:18;;;;;;;15.00;13.50;;;;;;;;;;5034227;28;20423;-78
2024/02/01 13:00:44;;;;;;;15.85;13.88;;;;;;;;;;5033941;28;20470;-78
2024/02/01 13:03:11;;;;;;;16.47;14.23;;;;;;;;;;5033661;28;20968;-78
2024/02/01 13:05:37;;;;;;;18.92;14.32;;;;;;;;;;5033501;28;20387;-77
2024/02/01 13:08:06;;;;;;;16.52;14.43;;;;;;;;;;5033507;28;20417;-77
2024/02/01 13:10:38;;;;;;;16.80;14.05;;;;;;;;;;5032711;28;20853;-77
2024/02/01 13:13:08;;;;;;;14.63;13.13;;;;;;;;;;5015183;28;20397;-77
2024/02/01 13:15:34;;;;;;;14.35;13.02;;;;;;;;;;5032687;28;20383;-76
2024/02/01 13:18:00;;;;;;;15.20;13.20;;;;;;;;;;5032716;28;20398;-77
2024/02/01 13:20:26;;;;;;;17.92;13.77;;;;;;;;;;5032893;28;20441;-77
2024/02/01 13:22:53;;;;;;;15.95;14.07;;;;;;;;;;5032608;28;20433;-77
2024/02/01 13:25:20;;;;;;;16.10;14.32;;;;;;;;;;5032826;28;20383;-77
2024/02/01 13:27:47;;;;;;;15.52;13.88;;;;;;;;;;5032272;28;20502;-77
2024/02/01 13:30:13;;;;;;;16.55;14.85;;;;;;;;;;5032403;28;20406;-78
2024/02/01 13:32:40;;;;;;;15.52;13.88;;;;;;;;;;5032396;28;20394;-77
2024/02/01 13:35:06;;;;;;;14.75;13.05;;;;;;;;;;5032432;28;20375;-77
2024/02/01 13:37:35;;;;;;;17.20;13.32;;;;;;;;;;5032123;28;20386;-76
2024/02/01 13:40:05;;;;;;;15.00;13.50;;;;;;;;;;5032133;28;20475;-77
2024/02/01 13:42:32;;;;;;;16.30;13.00;;;;;;;;;;5015683;28;20923;-77
2024/02/01 13:44:58;;;;;;;14.60;13.02;;;;;;;;;;5033655;28;20738;-78
2024/02/01 13:47:24;;;;;;;15.05;13.45;;;;;;;;;;5033190;28;20406;-77
2024/02/01 13:49:51;;;;;;;14.73;13.15;;;;;;;;;;5033380;28;20383;-77
2024/02/01 13:52:18;;;;;;;13.88;12.38;;;;;;;;;;5032891;28;20466;-78
2024/02/01 13:54:44;;;;;;;14.35;12.85;;;;;;;;;;5033083;28;20406;-77
2024/02/01 13:57:10;;;;;;;14.87;13.40;;;;;;;;;;5033340;28;20710;-77
2024/02/01 13:59:36;;;;;;;16.40;13.85;;;;;;;;;;5032822;28;20470;-78
2024/02/01 14:02:02;;;;;;;15.15;12.73;;;;;;;;;;5033149;28;20375;-77
2024/02/01 14:04:28;;;;;;;13.60;12.30;;;;;;;;;;5032056;28;20411;-78
2024/02/01 14:06:54;;;;;;;15.85;12.63;;;;;;;;;;5032748;28;20468;-78
2024/02/01 14:09:22;;;;;;;13.38;12.07;;;;;;;;;;5033040;28;20375;-77
2024/02/01 14:11:49;;;;;;;14.18;12.75;;;;;;;;;;5034172;28;20461;-78
2024/02/01 14:14:14;;;;;;;13.88;12.52;;;;;;;;;;5033765;28;20383;-78
2024/02/01 14:16:40;;;;;;;14.02;12.60;;;;;;;;;;5033492;28;20410;-78
2024/02/01 14:19:06;;;;;;;14.23;12.82;;;;;;;;;;5032904;28;20417;-78
2024/02/01 14:21:32;;;;;;;13.55;12.18;;;;;;;;;;5032867;28;20841;-78
2024/02/01 14:23:59;;;;;;;15.32;13.07;;;;;;;;;;5032598;28;20387;-77
2024/02/01 14:26:26;;;;;;;15.00;13.50;;;;;;;;;;5032280;28;20406;-78
2024/02/01 14:28:54;;;;;;;14.45;12.95;;;;;;;;;;5032345;28;20869;-78
2024/02/01 14:31:21;;;;;;;15.25;13.70;;;;;;;;;;5032599;28;20445;-77
2024/02/01 14:33:47;;;;;;;14.40;12.90;;;;;;;;;;5032367;28;20375;-77
2024/02/01 14:36:13;;;;;;;14.98;13.57;;;;;;;;;;5032403;28;20483;-78
2024/02/01 14:38:41;;;;;;;13.57;12.18;;;;;;;;;;5032673;28;20383;-78
2024/02/01 14:41:10;;;;;;;14.25;12.75;;;;;;;;;;5032805;28;20383;-78
2024/02/01 14:43:36;;;;;;;14.32;12.93;;;;;;;;;;5033025;28;20383;-78
2024/02/01 14:46:02;;;;;;;14.27;12.88;;;;;;;;;;5036696;28;20389;-78
2024/02/01 14:48:28;;;;;;;14.60;13.00;;;;;;;;;;5036200;28;20765;-78
2024/02/01 14:50:54;;;;;;;14.82;13.27;;;;;;;;;;5036251;28;20429;-78
2024/02/01 14:53:20;;;;;;;13.80;12.50;;;;;;;;;;5035943;28;20376;-77
2024/02/01 14:55:46;;;;;;;14.02;12.57;;;;;;;;;;5036054;28;20379;-78
2024/02/01 14:58:12;;;;;;;15.35;12.88;;;;;;;;;;5036236;28;20379;-77
2024/02/01 15:00:38;;;;;;;13.27;12.00;;;;;;;;;;5035771;28;20436;-78
2024/02/01 15:03:06;;;;;;;13.90;12.52;;;;;;;;;;5035089;28;20491;-78
2024/02/01 15:05:33;;;;;;;14.43;13.02;;;;;;;;;;5034880;28;20871;-77